createdAt,value
2017-08-24T00:02:23.751Z,10.50
2017-08-24T00:04:52.226Z,16.63
2017-08-24T00:07:20.711Z,11.10
2017-08-24T00:09:49.189Z,27.00
2017-08-24T00:12:17.674Z,15.43
2017-08-24T00:14:46.248Z,25.97
2017-08-24T00:17:14.682Z,8.67
2017-08-24T00:19:43.108Z,16.87
2017-08-24T00:22:11.548Z,8.43
2017-08-24T00:24:40.084Z,26.43
2017-08-24T00:27:08.566Z,4.07
2017-08-24T00:29:37.040Z,24.07
2017-08-24T00:32:05.530Z,6.70
2017-08-24T00:34:34.010Z,15.07
2017-08-24T00:37:02.494Z,7.27
2017-08-24T00:39:30.933Z,8.30
2017-08-24T00:41:59.451Z,9.23
2017-08-24T00:44:27.938Z,19.07
2017-08-24T00:46:57.232Z,3.63
2017-08-24T00:49:25.655Z,21.27
2017-08-24T00:51:54.113Z,10.37
2017-08-24T00:54:22.586Z,19.37
2017-08-24T00:56:51.067Z,9.73
2017-08-24T00:59:19.505Z,13.63
2017-08-24T01:01:48.031Z,9.17
2017-08-24T01:04:16.513Z,24.50
2017-08-24T01:06:44.988Z,7.13
2017-08-24T01:09:13.429Z,11.00
2017-08-24T01:11:41.959Z,13.30
2017-08-24T01:14:10.411Z,25.77
2017-08-24T01:16:38.922Z,23.73
2017-08-24T01:19:07.361Z,36.67
2017-08-24T01:21:35.778Z,25.37
2017-08-24T01:24:04.224Z,15.83
2017-08-24T01:26:32.643Z,34.60
2017-08-24T01:29:01.085Z,20.57
2017-08-24T01:31:29.595Z,5.03
2017-08-24T01:33:58.040Z,8.10
2017-08-24T01:36:26.555Z,8.70
2017-08-24T01:38:55.055Z,4.70
2017-08-24T01:41:23.527Z,16.10
2017-08-24T01:43:52.016Z,11.60
2017-08-24T01:46:24.397Z,22.17
2017-08-24T01:48:52.856Z,11.73
2017-08-24T01:51:21.294Z,12.23
2017-08-24T01:53:49.739Z,15.97
2017-08-24T01:56:18.155Z,7.20
2017-08-24T01:58:46.601Z,12.10
2017-08-24T02:01:15.072Z,8.17
2017-08-24T02:03:43.542Z,3.70
2017-08-24T02:06:11.976Z,4.30
2017-08-24T02:08:40.433Z,4.23
2017-08-24T02:11:08.898Z,12.40
2017-08-24T02:13:37.370Z,15.73
2017-08-24T02:16:05.865Z,19.93
2017-08-24T02:18:34.357Z,3.97
2017-08-24T02:21:02.829Z,9.10
2017-08-24T02:23:31.314Z,5.37
2017-08-24T02:25:59.782Z,13.70
2017-08-24T02:28:28.263Z,4.27
2017-08-24T02:30:56.725Z,4.57
2017-08-24T02:33:25.231Z,11.00
2017-08-24T02:35:53.725Z,4.47
2017-08-24T02:38:22.196Z,4.67
2017-08-24T02:40:50.635Z,5.90
2017-08-24T02:43:19.169Z,5.10
2017-08-24T02:45:47.634Z,12.50
2017-08-24T02:48:16.128Z,3.93
2017-08-24T02:50:44.599Z,7.67
2017-08-24T02:53:13.089Z,13.40
2017-08-24T02:55:41.531Z,7.00
2017-08-24T02:58:09.955Z,6.53
2017-08-24T03:00:38.448Z,12.03
2017-08-24T03:03:06.916Z,8.00
2017-08-24T03:05:35.369Z,4.70
2017-08-24T03:08:04.605Z,4.70
2017-08-24T03:10:33.073Z,11.30
2017-08-24T03:13:01.570Z,5.83
2017-08-24T03:15:30.027Z,4.50
2017-08-24T03:17:58.522Z,7.03
2017-08-24T03:20:26.964Z,5.97
2017-08-24T03:22:55.488Z,3.87
2017-08-24T03:25:23.968Z,23.70
2017-08-24T03:27:52.462Z,24.33
2017-08-24T03:30:20.926Z,4.17
2017-08-24T03:32:49.416Z,27.47
2017-08-24T03:35:17.877Z,10.10
2017-08-24T03:37:46.380Z,9.20
2017-08-24T03:40:14.879Z,8.27
2017-08-24T03:42:43.337Z,14.27
2017-08-24T03:45:11.768Z,4.00
2017-08-24T03:47:40.224Z,5.00
2017-08-24T03:50:08.679Z,22.13
2017-08-24T03:52:37.119Z,4.83
2017-08-24T03:55:05.553Z,11.70
2017-08-24T03:57:34.032Z,4.20
2017-08-24T04:00:02.522Z,6.03
2017-08-24T04:02:30.996Z,20.00
2017-08-24T04:04:59.429Z,8.47
2017-08-24T04:07:27.884Z,18.73
2017-08-24T04:09:56.354Z,11.60
2017-08-24T04:12:24.795Z,9.70
2017-08-24T04:14:53.291Z,20.87
2017-08-24T04:17:21.785Z,6.50
2017-08-24T04:19:50.215Z,22.43
2017-08-24T04:22:18.647Z,19.20
2017-08-24T04:24:47.138Z,22.53
2017-08-24T04:27:15.583Z,15.60
2017-08-24T04:29:44.104Z,18.97
2017-08-24T04:32:12.539Z,12.43
2017-08-24T04:34:40.960Z,16.40
2017-08-24T04:37:09.432Z,13.00
2017-08-24T04:39:37.915Z,11.53
2017-08-24T04:42:06.395Z,19.70
2017-08-24T04:44:34.833Z,21.40
2017-08-24T04:47:03.304Z,6.10
2017-08-24T04:49:31.731Z,10.97
2017-08-24T04:52:00.224Z,9.70
2017-08-24T04:54:29.537Z,6.00
2017-08-24T04:56:57.963Z,5.80
2017-08-24T04:59:26.422Z,7.53
2017-08-24T05:01:54.877Z,12.13
2017-08-24T05:04:23.356Z,12.93
2017-08-24T05:06:51.780Z,5.37
2017-08-24T05:09:20.306Z,4.80
2017-08-24T05:11:48.809Z,4.73
2017-08-24T05:14:17.296Z,6.03
2017-08-24T05:16:45.764Z,9.20
2017-08-24T05:19:14.255Z,14.93
2017-08-24T05:21:42.738Z,9.23
2017-08-24T05:24:11.183Z,12.80
2017-08-24T05:26:39.700Z,14.83
2017-08-24T05:29:08.182Z,22.27
2017-08-24T05:31:36.599Z,18.67
2017-08-24T05:34:05.044Z,10.63
2017-08-24T05:39:08.010Z,13.97
2017-08-24T05:41:36.530Z,11.63
2017-08-24T05:44:04.997Z,14.43
2017-08-24T05:46:33.414Z,10.03
2017-08-24T05:49:01.972Z,8.83
2017-08-24T05:51:30.409Z,10.63
2017-08-24T05:53:58.936Z,11.33
2017-08-24T05:56:27.430Z,19.40
2017-08-24T05:58:55.896Z,17.80
2017-08-24T06:01:24.338Z,9.43
2017-08-24T06:03:52.874Z,12.83
2017-08-24T06:06:21.333Z,7.00
2017-08-24T06:08:49.834Z,10.47
2017-08-24T06:11:18.317Z,24.93
2017-08-24T06:13:46.803Z,8.70
2017-08-24T06:16:15.256Z,8.37
2017-08-24T06:18:43.743Z,9.03
2017-08-24T06:21:12.205Z,21.63
2017-08-24T06:23:41.399Z,29.13
2017-08-24T06:26:09.916Z,20.17
2017-08-24T06:28:38.395Z,23.03
2017-08-24T06:31:06.843Z,29.40
2017-08-24T06:33:35.359Z,15.97
2017-08-24T06:36:03.948Z,27.00
2017-08-24T06:38:32.428Z,22.97
2017-08-24T06:41:00.902Z,15.23
2017-08-24T06:43:29.342Z,12.93
2017-08-24T06:45:57.886Z,14.97
2017-08-24T06:48:26.326Z,7.53
2017-08-24T06:50:54.817Z,9.87
2017-08-24T06:53:23.263Z,16.63
2017-08-24T06:55:51.812Z,19.47
2017-08-24T06:58:20.269Z,24.27
2017-08-24T07:00:48.764Z,5.33
2017-08-24T07:03:17.253Z,4.03
2017-08-24T07:05:45.725Z,6.43
2017-08-24T07:08:14.244Z,11.97
2017-08-24T07:10:42.797Z,4.03
2017-08-24T07:13:11.253Z,4.47
2017-08-24T07:15:39.760Z,3.50
2017-08-24T07:18:08.211Z,4.40
2017-08-24T07:20:36.734Z,10.40
2017-08-24T07:23:05.198Z,7.17
2017-08-24T07:25:33.698Z,17.43
2017-08-24T07:28:02.182Z,3.00
2017-08-24T07:30:30.613Z,6.00
2017-08-24T07:32:59.140Z,4.43
2017-08-24T07:35:27.611Z,3.93
2017-08-24T07:37:56.113Z,3.83
2017-08-24T07:40:24.579Z,5.10
2017-08-24T07:42:53.137Z,11.50
2017-08-24T07:45:21.660Z,6.43
2017-08-24T07:47:50.127Z,10.50
2017-08-24T07:50:18.622Z,6.77
2017-08-24T07:52:47.066Z,3.77
2017-08-24T07:55:15.575Z,4.20
2017-08-24T07:57:44.051Z,3.50
2017-08-24T08:00:12.541Z,5.87
2017-08-24T08:02:40.958Z,6.57
2017-08-24T08:05:09.409Z,3.03
2017-08-24T08:07:37.884Z,5.47
2017-08-24T08:10:06.336Z,6.20
2017-08-24T08:12:34.857Z,3.90
2017-08-24T08:15:03.343Z,2.37
2017-08-24T08:17:31.812Z,12.73
2017-08-24T08:20:00.292Z,2.40
2017-08-24T08:22:28.734Z,2.80
2017-08-24T08:24:57.180Z,2.93
2017-08-24T08:27:25.608Z,2.83
2017-08-24T08:29:54.124Z,7.43
2017-08-24T08:32:22.575Z,3.83
2017-08-24T08:34:51.093Z,3.33
2017-08-24T08:37:19.550Z,2.90
2017-08-24T08:39:47.986Z,4.97
2017-08-24T08:42:16.419Z,2.47
2017-08-24T08:44:44.983Z,4.70
2017-08-24T08:47:13.412Z,3.77
2017-08-24T08:49:41.853Z,4.27
2017-08-24T08:52:10.354Z,4.73
2017-08-24T08:54:38.847Z,3.73
2017-08-24T08:57:07.315Z,4.87
2017-08-24T08:59:35.826Z,8.03
2017-08-24T09:02:04.375Z,12.50
2017-08-24T09:04:32.864Z,4.60
2017-08-24T09:07:01.348Z,3.73
2017-08-24T09:09:29.823Z,5.23
2017-08-24T09:11:58.312Z,3.60
2017-08-24T09:14:26.737Z,8.10
2017-08-24T09:16:55.267Z,4.43
2017-08-24T09:19:23.760Z,3.23
2017-08-24T09:21:52.240Z,3.30
2017-08-24T09:24:20.719Z,9.50
2017-08-24T09:26:49.214Z,4.67
2017-08-24T09:29:17.677Z,3.30
2017-08-24T09:31:46.098Z,3.00
2017-08-24T09:34:14.552Z,2.50
2017-08-24T09:36:43.335Z,3.27
2017-08-24T09:39:11.823Z,7.23
2017-08-24T09:41:40.261Z,3.13
2017-08-24T09:44:08.722Z,4.60
2017-08-24T09:46:37.160Z,4.20
2017-08-24T09:49:05.654Z,3.70
2017-08-24T09:51:34.128Z,3.10
2017-08-24T09:54:02.602Z,14.10
2017-08-24T09:56:31.036Z,3.53
2017-08-24T09:58:59.582Z,3.73
2017-08-24T10:01:28.056Z,3.80
2017-08-24T10:03:56.540Z,6.87
2017-08-24T10:06:25.024Z,3.73
2017-08-24T10:08:53.461Z,8.00
2017-08-24T10:11:21.913Z,4.40
2017-08-24T10:13:50.327Z,7.33
2017-08-24T10:16:18.770Z,10.03
2017-08-24T10:18:49.742Z,3.50
2017-08-24T10:21:18.268Z,5.73
2017-08-24T10:23:46.692Z,3.70
2017-08-24T10:26:15.144Z,3.63
2017-08-24T10:28:43.674Z,14.97
2017-08-24T10:31:12.213Z,4.30
2017-08-24T10:33:40.643Z,3.90
2017-08-24T10:36:09.197Z,3.67
2017-08-24T10:38:37.649Z,2.93
2017-08-24T10:41:06.240Z,5.83
2017-08-24T10:43:34.719Z,4.50
2017-08-24T10:46:03.199Z,7.90
2017-08-24T10:48:31.632Z,3.73
2017-08-24T10:51:00.162Z,5.53
2017-08-24T10:53:28.636Z,4.67
2017-08-24T10:55:57.116Z,4.60
2017-08-24T10:58:25.606Z,3.70
2017-08-24T11:00:54.059Z,6.30
2017-08-24T11:03:22.556Z,3.43
2017-08-24T11:05:51.004Z,3.67
2017-08-24T11:08:19.450Z,6.03
2017-08-24T11:10:47.938Z,4.60
2017-08-24T11:13:16.366Z,3.40
2017-08-24T11:15:44.873Z,6.30
2017-08-24T11:18:13.424Z,6.33
2017-08-24T11:20:41.945Z,3.10
2017-08-24T11:23:10.430Z,8.10
2017-08-24T11:25:38.910Z,3.27
2017-08-24T11:28:07.384Z,3.27
2017-08-24T11:30:35.875Z,4.37
2017-08-24T11:33:04.397Z,4.70
2017-08-24T11:35:32.839Z,5.73
2017-08-24T11:38:01.322Z,2.93
2017-08-24T11:40:29.787Z,5.83
2017-08-24T11:42:58.267Z,6.10
2017-08-24T11:45:26.729Z,3.93
2017-08-24T11:47:55.240Z,2.63
2017-08-24T11:50:23.731Z,5.77
2017-08-24T11:52:52.165Z,3.47
2017-08-24T11:55:20.625Z,2.60
2017-08-24T11:57:49.064Z,11.60
2017-08-24T12:00:17.563Z,11.33
2017-08-24T12:02:46.023Z,13.90
2017-08-24T12:05:14.512Z,5.17
2017-08-24T12:07:42.991Z,2.90
2017-08-24T12:10:11.440Z,13.07
2017-08-24T12:12:39.877Z,4.40
2017-08-24T12:15:08.333Z,7.73
2017-08-24T12:17:36.759Z,3.53
2017-08-24T12:20:05.212Z,2.70
2017-08-24T12:22:33.639Z,3.57
2017-08-24T12:25:02.160Z,4.33
2017-08-24T12:27:30.655Z,5.70
2017-08-24T12:29:59.135Z,3.80
2017-08-24T12:32:27.599Z,12.10
2017-08-24T12:34:56.099Z,4.20
2017-08-24T12:37:24.556Z,4.60
2017-08-24T12:39:52.993Z,4.80
2017-08-24T12:42:21.526Z,7.77
2017-08-24T12:44:50.022Z,4.83
2017-08-24T12:47:18.487Z,4.13
2017-08-24T12:49:46.980Z,5.37
2017-08-24T12:52:15.465Z,7.20
2017-08-24T12:54:43.897Z,4.27
2017-08-24T12:57:12.358Z,4.40
2017-08-24T12:59:40.818Z,5.83
2017-08-24T13:02:09.305Z,7.07
2017-08-24T13:04:37.745Z,5.83
2017-08-24T13:07:06.252Z,4.93
2017-08-24T13:09:34.746Z,5.60
2017-08-24T13:12:03.216Z,10.17
2017-08-24T13:14:31.701Z,8.53
2017-08-24T13:17:00.174Z,4.93
2017-08-24T13:19:28.669Z,13.90
2017-08-24T13:21:57.350Z,7.03
2017-08-24T13:24:25.827Z,7.97
2017-08-24T13:26:54.637Z,5.27
2017-08-24T13:29:23.104Z,11.17
2017-08-24T13:31:51.578Z,5.87
2017-08-24T13:34:20.018Z,6.63
2017-08-24T13:36:48.449Z,7.20
2017-08-24T13:39:16.928Z,6.20
2017-08-24T13:41:45.347Z,5.00
2017-08-24T13:44:13.932Z,6.23
2017-08-24T13:46:42.360Z,6.10
2017-08-24T13:49:11.274Z,5.37
2017-08-24T13:51:39.752Z,5.07
2017-08-24T13:54:08.196Z,6.27
2017-08-24T13:56:36.703Z,5.97
2017-08-24T13:59:05.148Z,5.80
2017-08-24T14:01:33.682Z,21.20
2017-08-24T14:04:02.166Z,15.90
2017-08-24T14:06:30.630Z,7.33
2017-08-24T14:08:59.113Z,7.53
2017-08-24T14:11:27.536Z,9.73
2017-08-24T14:13:55.973Z,13.57
2017-08-24T14:16:24.474Z,8.03
2017-08-24T14:18:53.047Z,13.73
2017-08-24T14:21:21.528Z,8.33
2017-08-24T14:23:50.001Z,4.80
2017-08-24T14:26:18.506Z,10.77
2017-08-24T14:28:46.990Z,9.80
2017-08-24T14:31:15.434Z,6.43
2017-08-24T14:33:43.877Z,10.40
2017-08-24T14:36:12.336Z,5.67
2017-08-24T14:38:40.818Z,11.90
2017-08-24T14:41:09.302Z,9.27
2017-08-24T14:43:37.758Z,11.23
2017-08-24T14:46:06.195Z,7.53
2017-08-24T14:48:34.629Z,6.83
2017-08-24T14:51:03.122Z,10.53
2017-08-24T14:53:31.547Z,9.87
2017-08-24T14:56:00.076Z,11.30
2017-08-24T14:58:28.548Z,14.80
2017-08-24T15:00:57.047Z,12.63
2017-08-24T15:03:25.513Z,15.27
2017-08-24T15:05:54.019Z,12.07
2017-08-24T15:08:22.541Z,19.87
2017-08-24T15:10:51.079Z,13.10
2017-08-24T15:13:19.756Z,12.80
2017-08-24T15:15:48.226Z,13.80
2017-08-24T15:18:16.733Z,21.77
2017-08-24T15:20:45.214Z,15.60
2017-08-24T15:23:13.693Z,17.90
2017-08-24T15:25:42.124Z,17.50
2017-08-24T15:28:10.666Z,24.77
2017-08-24T15:30:39.127Z,33.23
2017-08-24T15:33:07.578Z,31.60
2017-08-24T15:35:36.018Z,41.53
2017-08-24T15:38:04.588Z,29.07
2017-08-24T15:40:33.018Z,26.10
2017-08-24T15:43:01.548Z,30.97
2017-08-24T15:45:30.030Z,29.60
2017-08-24T15:47:58.510Z,29.30
2017-08-24T15:50:26.988Z,31.43
2017-08-24T15:52:55.482Z,45.57
2017-08-24T15:55:23.924Z,27.97
2017-08-24T15:57:52.427Z,31.80
2017-08-24T16:00:20.927Z,27.47
2017-08-24T16:02:49.410Z,24.53
2017-08-24T16:05:17.890Z,33.80
2017-08-24T16:07:46.461Z,26.73
2017-08-24T16:10:14.944Z,26.60
2017-08-24T16:12:43.439Z,28.60
2017-08-24T16:15:11.921Z,32.13
2017-08-24T16:17:40.402Z,25.80
2017-08-24T16:20:08.838Z,30.77
2017-08-24T16:22:37.361Z,31.30
2017-08-24T16:25:05.845Z,32.13
2017-08-24T16:27:34.289Z,31.40
2017-08-24T16:30:02.804Z,26.50
2017-08-24T16:32:32.011Z,27.13
2017-08-24T16:35:00.490Z,25.17
2017-08-24T16:37:28.937Z,20.90
2017-08-24T16:39:57.458Z,25.93
2017-08-24T16:42:25.896Z,32.03
2017-08-24T16:44:54.422Z,45.40
2017-08-24T16:47:22.851Z,26.53
2017-08-24T16:49:51.378Z,22.77
2017-08-24T16:52:19.852Z,28.00
2017-08-24T16:54:48.349Z,34.40
2017-08-24T16:57:16.831Z,28.60
2017-08-24T16:59:45.292Z,27.73
2017-08-24T17:02:13.786Z,22.13
2017-08-24T17:04:42.280Z,26.80
2017-08-24T17:07:10.745Z,28.73
2017-08-24T17:09:39.232Z,24.20
2017-08-24T17:12:07.699Z,34.67
2017-08-24T17:14:36.233Z,29.90
2017-08-24T17:17:04.767Z,30.63
2017-08-24T17:19:33.201Z,24.53
2017-08-24T17:22:01.735Z,28.93
2017-08-24T17:24:30.220Z,22.50
2017-08-24T17:26:58.708Z,27.03
2017-08-24T17:29:27.152Z,24.40
2017-08-24T17:31:55.672Z,20.77
2017-08-24T17:34:24.152Z,26.57
2017-08-24T17:36:52.613Z,27.73
2017-08-24T17:39:21.112Z,24.17
2017-08-24T17:41:49.563Z,32.73
2017-08-24T17:44:18.076Z,24.07
2017-08-24T17:46:46.541Z,24.80
2017-08-24T17:49:15.050Z,27.83
2017-08-24T17:51:43.639Z,28.03
2017-08-24T17:54:12.071Z,37.23
2017-08-24T17:56:40.537Z,28.60
2017-08-24T17:59:09.068Z,26.90
2017-08-24T18:01:37.542Z,24.57
2017-08-24T18:04:06.031Z,37.47
2017-08-24T18:06:34.516Z,24.77
2017-08-24T18:09:02.982Z,35.70
2017-08-24T18:11:32.176Z,25.60
2017-08-24T18:14:00.667Z,28.20
2017-08-24T18:16:29.163Z,27.67
2017-08-24T18:18:57.615Z,23.40
2017-08-24T18:21:26.139Z,26.43
2017-08-24T18:23:54.604Z,37.27
2017-08-24T18:26:23.091Z,28.23
2017-08-24T18:28:51.549Z,30.20
2017-08-24T18:31:20.052Z,37.83
2017-08-24T18:33:48.505Z,34.10
2017-08-24T18:36:17.025Z,25.30
2017-08-24T18:38:45.496Z,33.87
2017-08-24T18:41:13.929Z,40.07
2017-08-24T18:43:42.385Z,26.17
2017-08-24T18:46:10.825Z,33.60
2017-08-24T18:48:39.254Z,31.40
2017-08-24T18:51:07.708Z,32.20
2017-08-24T18:53:36.165Z,29.77
2017-08-24T18:56:04.681Z,30.73
2017-08-24T18:58:33.147Z,30.50
2017-08-24T19:01:01.630Z,33.30
2017-08-24T19:03:30.127Z,30.27
2017-08-24T19:05:58.660Z,37.93
2017-08-24T19:08:27.106Z,29.97
2017-08-24T19:10:55.684Z,36.00
2017-08-24T19:13:24.111Z,33.47
2017-08-24T19:15:52.704Z,23.80
2017-08-24T19:18:21.148Z,42.00
2017-08-24T19:20:49.604Z,29.73
2017-08-24T19:23:18.076Z,49.00
2017-08-24T19:25:46.556Z,32.03
2017-08-24T19:28:15.048Z,42.63
2017-08-24T19:30:43.519Z,17.90
2017-08-24T19:33:11.994Z,40.73
2017-08-24T19:35:40.494Z,33.60
2017-08-24T19:38:08.920Z,25.90
2017-08-24T19:40:37.386Z,24.53
2017-08-24T19:43:05.939Z,31.70
2017-08-24T19:45:34.416Z,27.13
2017-08-24T19:48:02.887Z,23.40
2017-08-24T19:50:31.337Z,26.63
2017-08-24T19:52:59.793Z,26.53
2017-08-24T19:55:28.330Z,35.53
2017-08-24T19:57:57.636Z,35.83
2017-08-24T20:00:26.117Z,29.50
2017-08-24T20:02:54.585Z,18.40
2017-08-24T20:05:23.075Z,19.30
2017-08-24T20:07:51.542Z,25.37
2017-08-24T20:10:20.764Z,20.37
2017-08-24T20:12:49.247Z,28.10
2017-08-24T20:15:17.666Z,24.53
2017-08-24T20:17:46.134Z,23.57
2017-08-24T20:20:14.592Z,27.60
2017-08-24T20:22:43.085Z,27.60
2017-08-24T20:25:11.566Z,32.07
2017-08-24T20:27:40.032Z,34.03
2017-08-24T20:30:08.516Z,30.33
2017-08-24T20:32:37.014Z,34.43
2017-08-24T20:35:05.491Z,27.40
2017-08-24T20:37:33.940Z,27.23
2017-08-24T20:40:02.392Z,30.93
2017-08-24T20:42:30.923Z,20.07
2017-08-24T20:44:59.412Z,18.80
2017-08-24T20:47:27.906Z,20.83
2017-08-24T20:49:56.363Z,13.80
2017-08-24T20:52:24.856Z,14.50
2017-08-24T20:54:53.336Z,33.23
2017-08-24T20:57:21.922Z,17.03
2017-08-24T20:59:50.385Z,15.20
2017-08-24T21:02:19.598Z,16.03
2017-08-24T21:04:48.102Z,14.23
2017-08-24T21:07:16.568Z,18.73
2017-08-24T21:09:45.060Z,12.67
2017-08-24T21:12:14.332Z,11.83
2017-08-24T21:14:42.790Z,23.67
2017-08-24T21:17:11.311Z,11.13
2017-08-24T21:19:39.778Z,30.63
2017-08-24T21:22:08.694Z,18.63
2017-08-24T21:24:37.182Z,17.90
2017-08-24T21:27:05.655Z,13.93
2017-08-24T21:29:34.122Z,15.13
2017-08-24T21:32:02.538Z,11.13
2017-08-24T21:34:31.092Z,41.07
2017-08-24T21:36:59.520Z,7.57
2017-08-24T21:39:28.057Z,5.23
2017-08-24T21:41:56.493Z,12.07
2017-08-24T21:44:25.037Z,13.40
2017-08-24T21:46:53.504Z,11.53
2017-08-24T21:49:21.996Z,7.50
2017-08-24T21:51:50.443Z,13.57
2017-08-24T21:54:18.943Z,8.23
2017-08-24T21:56:47.436Z,13.00
2017-08-24T21:59:15.915Z,12.20
2017-08-24T22:01:44.395Z,6.10
2017-08-24T22:04:12.881Z,8.30
2017-08-24T22:06:41.308Z,7.07
2017-08-24T22:09:09.851Z,7.80
2017-08-24T22:11:38.334Z,12.83
2017-08-24T22:14:06.813Z,10.60
2017-08-24T22:16:35.288Z,5.50
2017-08-24T22:19:03.785Z,8.87
2017-08-24T22:21:32.257Z,5.43
2017-08-24T22:24:00.716Z,6.10
2017-08-24T22:26:29.152Z,9.90
2017-08-24T22:28:57.604Z,20.90
2017-08-24T22:31:26.067Z,4.60
2017-08-24T22:33:54.570Z,11.37
2017-08-24T22:36:23.050Z,4.47
2017-08-24T22:38:51.514Z,12.23
2017-08-24T22:41:19.940Z,7.70
2017-08-24T22:43:48.500Z,4.50
2017-08-24T22:46:16.944Z,4.60
2017-08-24T22:48:45.683Z,5.47
2017-08-24T22:51:14.207Z,4.07
2017-08-24T22:53:48.113Z,19.63
2017-08-24T22:59:27.054Z,8.33
2017-08-24T23:02:01.132Z,5.20
2017-08-24T23:04:29.605Z,8.37
2017-08-24T23:06:58.072Z,5.70
2017-08-24T23:09:26.559Z,9.43
2017-08-24T23:11:55.013Z,9.00
2017-08-24T23:14:23.528Z,4.67
2017-08-24T23:16:51.989Z,6.17
2017-08-24T23:19:20.474Z,8.90
2017-08-24T23:21:48.925Z,5.90
2017-08-24T23:24:17.452Z,5.33
2017-08-24T23:26:45.900Z,5.20
2017-08-24T23:29:14.423Z,6.20
2017-08-24T23:31:42.892Z,9.07
2017-08-24T23:34:11.371Z,6.97
2017-08-24T23:36:39.859Z,9.23
2017-08-24T23:39:08.296Z,13.10
2017-08-24T23:41:36.743Z,3.97
2017-08-24T23:44:05.191Z,6.90
2017-08-24T23:46:33.636Z,9.60
2017-08-24T23:49:02.159Z,11.83
2017-08-24T23:51:30.613Z,8.20
2017-08-24T23:53:59.143Z,13.87
2017-08-24T23:56:27.604Z,12.77
2017-08-24T23:58:56.024Z,14.50
